createdAt,value
2022-08-17T00:02:25.304Z,72.07
2022-08-17T00:04:55.072Z,71.56
2022-08-17T00:07:22.610Z,71.52
2022-08-17T00:09:49.636Z,71.40
2022-08-17T00:12:41.556Z,71.45
2022-08-17T00:15:05.664Z,71.23
2022-08-17T00:17:35.228Z,70.96
2022-08-17T00:20:02.322Z,71.30
2022-08-17T00:22:35.178Z,71.05
2022-08-17T00:25:07.397Z,70.90
2022-08-17T00:27:35.237Z,71.06
2022-08-17T00:30:02.164Z,71.03
2022-08-17T00:33:16.082Z,71.01
2022-08-17T00:35:19.471Z,71.23
2022-08-17T00:37:46.377Z,70.85
2022-08-17T00:40:15.245Z,71.36
2022-08-17T00:42:44.873Z,70.77
2022-08-17T00:45:15.152Z,70.87
2022-08-17T00:47:43.673Z,71.06
2022-08-17T00:50:13.635Z,70.77
2022-08-17T00:52:48.197Z,71.06
2022-08-17T00:55:15.370Z,71.05
2022-08-17T00:57:46.843Z,71.17
2022-08-17T01:00:26.497Z,71.31
2022-08-17T01:02:58.331Z,71.27
2022-08-17T01:05:28.979Z,71.36
2022-08-17T01:07:56.314Z,71.27
2022-08-17T01:10:58.348Z,71.16
2022-08-17T01:13:18.072Z,71.01
2022-08-17T01:16:00.470Z,70.75
2022-08-17T01:18:28.054Z,71.08
2022-08-17T01:20:57.768Z,70.82
2022-08-17T01:23:27.585Z,70.87
2022-08-17T01:25:57.820Z,70.56
2022-08-17T01:28:52.810Z,70.59
2022-08-17T01:31:15.551Z,70.56
2022-08-17T01:33:42.484Z,70.60
2022-08-17T01:36:09.771Z,70.44
2022-08-17T01:38:38.341Z,70.63
2022-08-17T01:41:15.388Z,70.58
2022-08-17T01:43:45.050Z,70.42
2022-08-17T01:46:18.727Z,70.35
2022-08-17T01:48:47.535Z,70.43
2022-08-17T01:51:16.035Z,70.44
2022-08-17T01:53:47.522Z,70.32
2022-08-17T01:56:18.936Z,70.32
2022-08-17T01:58:46.335Z,70.25
2022-08-17T02:01:18.575Z,70.36
2022-08-17T02:03:53.243Z,70.38
2022-08-17T02:06:28.451Z,70.40
2022-08-17T02:09:01.639Z,70.45
2022-08-17T02:11:29.206Z,70.46
2022-08-17T02:14:02.521Z,70.55
2022-08-17T02:16:37.942Z,70.53
2022-08-17T02:19:12.460Z,70.58
2022-08-17T02:21:41.825Z,70.71
2022-08-17T02:24:13.077Z,70.83
2022-08-17T02:26:42.114Z,70.89
2022-08-17T02:29:09.043Z,70.79
2022-08-17T02:31:36.000Z,71.00
2022-08-17T02:34:04.388Z,71.19
2022-08-17T02:36:35.832Z,71.22
2022-08-17T02:39:04.744Z,71.39
2022-08-17T02:41:32.376Z,71.15
2022-08-17T02:43:59.328Z,71.16
2022-08-17T02:46:26.862Z,71.13
2022-08-17T02:48:53.861Z,71.08
2022-08-17T02:51:20.720Z,71.15
2022-08-17T02:53:47.836Z,71.42
2022-08-17T02:56:14.708Z,70.98
2022-08-17T02:58:41.721Z,71.27
2022-08-17T03:01:10.127Z,71.18
2022-08-17T03:03:38.887Z,70.99
2022-08-17T03:06:07.747Z,71.29
2022-08-17T03:08:35.280Z,71.24
2022-08-17T03:11:02.202Z,71.13
2022-08-17T03:13:30.823Z,71.10
2022-08-17T03:15:58.521Z,71.11
2022-08-17T03:18:27.271Z,71.05
2022-08-17T03:20:59.850Z,70.81
2022-08-17T03:23:28.011Z,71.02
2022-08-17T03:25:57.287Z,71.09
2022-08-17T03:28:25.271Z,71.01
2022-08-17T03:30:52.292Z,71.29
2022-08-17T03:33:21.032Z,71.03
2022-08-17T03:35:48.392Z,71.44
2022-08-17T03:38:17.370Z,71.38
2022-08-17T03:40:57.136Z,71.22
2022-08-17T03:43:30.235Z,71.61
2022-08-17T03:46:28.897Z,71.58
2022-08-17T03:49:25.652Z,71.61
2022-08-17T03:52:16.143Z,71.61
2022-08-17T03:55:02.374Z,71.74
2022-08-17T03:57:30.561Z,71.84
2022-08-17T03:59:57.504Z,72.09
2022-08-17T04:02:32.957Z,72.19
2022-08-17T04:05:00.563Z,72.30
2022-08-17T04:07:30.295Z,72.35
2022-08-17T04:09:58.288Z,72.55
2022-08-17T04:12:26.220Z,72.67
2022-08-17T04:14:54.878Z,72.45
2022-08-17T04:17:27.388Z,72.54
2022-08-17T04:19:55.307Z,72.36
2022-08-17T04:22:30.387Z,72.34
2022-08-17T04:25:03.372Z,72.40
2022-08-17T04:27:30.210Z,72.32
2022-08-17T04:29:57.166Z,72.28
2022-08-17T04:33:04.386Z,72.17
2022-08-17T04:35:11.363Z,72.20
2022-08-17T04:37:38.243Z,72.23
2022-08-17T04:40:26.057Z,72.22
2022-08-17T04:43:10.089Z,72.21
2022-08-17T04:45:56.857Z,72.22
2022-08-17T04:48:36.522Z,71.74
2022-08-17T04:51:11.349Z,71.87
2022-08-17T04:53:40.648Z,71.80
2022-08-17T04:56:16.097Z,71.71
2022-08-17T04:58:50.612Z,71.51
2022-08-17T05:01:23.390Z,71.61
2022-08-17T05:03:56.138Z,71.51
2022-08-17T05:06:23.617Z,71.55
2022-08-17T05:08:50.634Z,71.49
2022-08-17T05:11:18.278Z,71.38
2022-08-17T05:13:45.336Z,71.44
2022-08-17T05:16:12.404Z,71.46
2022-08-17T05:18:39.561Z,71.42
2022-08-17T05:21:07.572Z,71.48
2022-08-17T05:23:42.730Z,71.52
2022-08-17T05:26:25.726Z,71.74
2022-08-17T05:29:02.467Z,71.86
2022-08-17T05:31:31.105Z,71.76
2022-08-17T05:33:58.285Z,71.76
2022-08-17T05:36:37.986Z,71.96
2022-08-17T05:39:16.164Z,72.05
2022-08-17T05:41:44.010Z,72.11
2022-08-17T05:44:11.004Z,72.01
2022-08-17T05:46:41.770Z,72.11
2022-08-17T05:49:09.594Z,72.11
2022-08-17T05:52:07.572Z,72.39
2022-08-17T05:54:56.585Z,72.20
2022-08-17T05:57:52.953Z,72.22
2022-08-17T06:00:30.199Z,72.41
2022-08-17T06:03:27.572Z,72.32
2022-08-17T06:06:06.609Z,72.41
2022-08-17T06:09:22.816Z,72.32
2022-08-17T06:12:19.939Z,72.32
2022-08-17T06:15:02.065Z,72.51
2022-08-17T06:17:30.310Z,72.63
2022-08-17T06:20:03.079Z,72.74
2022-08-17T06:22:34.603Z,72.92
2022-08-17T06:25:12.646Z,72.74
2022-08-17T06:27:45.327Z,73.01
2022-08-17T06:30:27.702Z,73.03
2022-08-17T06:32:59.607Z,73.22
2022-08-17T06:35:39.902Z,73.25
2022-08-17T06:38:34.981Z,76.08
2022-08-17T06:41:16.666Z,74.60
2022-08-17T06:43:56.813Z,74.14
2022-08-17T06:46:48.786Z,73.82
2022-08-17T06:49:44.743Z,73.69
2022-08-17T06:52:45.812Z,73.62
2022-08-17T06:56:09.486Z,73.52
2022-08-17T06:58:40.243Z,73.64
2022-08-17T07:01:14.219Z,73.93
2022-08-17T07:04:19.629Z,73.59
2022-08-17T07:07:27.036Z,73.76
2022-08-17T07:09:56.748Z,73.64
2022-08-17T07:12:29.690Z,73.67
2022-08-17T07:15:06.114Z,73.85
2022-08-17T07:17:46.522Z,73.83
2022-08-17T07:20:17.925Z,73.73
2022-08-17T07:23:09.017Z,73.75
2022-08-17T07:25:35.858Z,73.68
2022-08-17T07:28:05.377Z,73.80
2022-08-17T07:30:44.670Z,73.89
2022-08-17T07:33:27.246Z,73.87
2022-08-17T07:35:57.379Z,73.82
2022-08-17T07:38:29.468Z,73.74
2022-08-17T07:41:02.485Z,73.78
2022-08-17T07:43:41.693Z,73.63
2022-08-17T07:46:29.859Z,73.67
2022-08-17T07:49:03.176Z,73.73
2022-08-17T07:51:32.415Z,73.72
2022-08-17T07:54:14.641Z,73.67
2022-08-17T07:57:00.449Z,73.69
2022-08-17T07:59:33.716Z,73.55
2022-08-17T08:02:02.384Z,73.56
2022-08-17T08:07:27.235Z,73.48
2022-08-17T08:10:09.250Z,73.44
2022-08-17T08:12:46.208Z,73.43
2022-08-17T08:15:23.555Z,73.04
2022-08-17T08:18:00.399Z,73.48
2022-08-17T08:20:52.387Z,73.31
2022-08-17T08:23:20.774Z,73.21
2022-08-17T08:26:03.329Z,72.93
2022-08-17T08:28:39.421Z,72.58
2022-08-17T08:31:26.264Z,71.96
2022-08-17T08:33:59.529Z,72.19
2022-08-17T08:37:14.314Z,72.14
2022-08-17T08:39:52.066Z,71.80
2022-08-17T08:42:44.942Z,71.61
2022-08-17T08:45:33.966Z,70.63
2022-08-17T08:48:53.432Z,70.55
2022-08-17T08:51:33.123Z,69.67
2022-08-17T08:54:31.724Z,69.15
2022-08-17T08:57:28.052Z,68.60
2022-08-17T09:00:17.613Z,66.75
2022-08-17T09:03:09.386Z,66.94
2022-08-17T09:06:00.411Z,65.96
2022-08-17T09:08:27.381Z,64.46
2022-08-17T09:11:11.719Z,65.31
2022-08-17T09:14:22.054Z,65.04
2022-08-17T09:17:05.865Z,64.26
2022-08-17T09:19:42.879Z,63.72
2022-08-17T09:22:20.713Z,63.18
2022-08-17T09:24:58.445Z,62.53
2022-08-17T09:27:41.317Z,62.27
2022-08-17T09:30:10.993Z,61.02
2022-08-17T09:32:44.056Z,60.89
2022-08-17T09:35:25.104Z,60.39
2022-08-17T09:38:07.592Z,61.19
2022-08-17T09:40:43.476Z,60.42
2022-08-17T09:44:01.636Z,60.12
2022-08-17T09:46:38.993Z,60.38
2022-08-17T09:49:26.604Z,59.99
2022-08-17T09:52:03.170Z,59.95
2022-08-17T09:54:40.366Z,60.28
2022-08-17T09:57:31.630Z,60.41
2022-08-17T10:00:09.858Z,60.44
2022-08-17T10:03:00.335Z,61.15
2022-08-17T10:05:39.560Z,61.41
2022-08-17T10:08:29.466Z,61.78
2022-08-17T10:11:00.066Z,62.03
2022-08-17T10:13:54.111Z,62.34
2022-08-17T10:16:44.011Z,62.65
2022-08-17T10:19:30.337Z,62.67
2022-08-17T10:22:34.710Z,62.90
2022-08-17T10:25:27.785Z,62.10
2022-08-17T10:28:19.752Z,61.80
2022-08-17T10:31:05.243Z,62.02
2022-08-17T10:34:20.755Z,62.09
2022-08-17T10:37:13.994Z,62.25
2022-08-17T10:39:53.044Z,62.58
2022-08-17T10:42:45.794Z,62.80
2022-08-17T10:45:29.590Z,63.18
2022-08-17T10:48:07.461Z,63.02
2022-08-17T10:50:53.146Z,63.33
2022-08-17T10:53:31.904Z,63.52
2022-08-17T10:56:14.128Z,63.92
2022-08-17T10:58:49.912Z,63.95
2022-08-17T11:01:17.960Z,63.62
2022-08-17T11:03:57.335Z,63.48
2022-08-17T11:07:16.820Z,63.44
2022-08-17T11:10:01.947Z,63.63
2022-08-17T11:12:54.364Z,63.90
2022-08-17T11:15:21.287Z,63.73
2022-08-17T11:18:01.657Z,63.70
2022-08-17T11:21:06.213Z,63.78
2022-08-17T11:24:14.268Z,64.29
2022-08-17T11:26:48.857Z,64.11
2022-08-17T11:29:24.779Z,64.13
2022-08-17T11:32:08.344Z,63.89
2022-08-17T11:34:40.546Z,63.66
2022-08-17T11:37:12.229Z,63.80
2022-08-17T11:39:54.425Z,63.92
2022-08-17T11:42:34.442Z,64.22
2022-08-17T11:45:32.116Z,64.31
2022-08-17T11:48:44.236Z,64.18
2022-08-17T11:51:35.292Z,63.95
2022-08-17T11:54:32.866Z,64.05
2022-08-17T11:57:21.778Z,64.31
2022-08-17T11:59:48.674Z,64.47
2022-08-17T12:02:32.474Z,64.14
2022-08-17T12:05:14.680Z,63.97
2022-08-17T12:07:52.943Z,64.09
2022-08-17T12:10:31.627Z,64.29
2022-08-17T12:13:10.316Z,64.55
2022-08-17T12:15:43.517Z,64.87
2022-08-17T12:18:19.801Z,64.66
2022-08-17T12:21:01.554Z,64.27
2022-08-17T12:24:04.682Z,63.73
2022-08-17T12:26:34.845Z,63.37
2022-08-17T12:29:18.075Z,63.60
2022-08-17T12:32:03.795Z,63.71
2022-08-17T12:34:41.278Z,63.80
2022-08-17T12:37:20.656Z,63.85
2022-08-17T12:40:00.810Z,64.01
2022-08-17T12:42:37.312Z,63.92
2022-08-17T12:45:21.191Z,64.07
2022-08-17T12:47:48.180Z,64.04
2022-08-17T12:50:28.699Z,64.02
2022-08-17T12:53:01.609Z,64.15
2022-08-17T12:55:35.897Z,63.93
2022-08-17T12:58:03.320Z,63.72
2022-08-17T13:00:33.537Z,63.89
2022-08-17T13:03:21.102Z,63.82
2022-08-17T13:06:01.346Z,63.74
2022-08-17T13:08:38.441Z,63.73
2022-08-17T13:11:09.471Z,63.74
2022-08-17T13:13:39.780Z,63.69
2022-08-17T13:16:12.725Z,63.10
2022-08-17T13:18:42.582Z,63.21
2022-08-17T13:21:19.780Z,62.77
2022-08-17T13:24:11.130Z,62.76
2022-08-17T13:26:42.139Z,62.79
2022-08-17T13:29:33.783Z,62.89
2022-08-17T13:32:11.569Z,62.67
2022-08-17T13:35:01.636Z,63.05
2022-08-17T13:37:34.199Z,62.86
2022-08-17T13:40:09.845Z,63.00
2022-08-17T13:42:50.208Z,63.07
2022-08-17T13:45:35.564Z,62.70
2022-08-17T13:48:19.477Z,62.69
2022-08-17T13:50:55.489Z,62.71
2022-08-17T13:53:27.057Z,62.46
2022-08-17T13:56:02.460Z,62.05
2022-08-17T13:58:35.425Z,62.05
2022-08-17T14:01:28.413Z,62.04
2022-08-17T14:03:56.333Z,62.21
2022-08-17T14:06:52.871Z,62.28
2022-08-17T14:09:14.272Z,62.14
2022-08-17T14:11:42.298Z,62.05
2022-08-17T14:14:09.362Z,62.04
2022-08-17T14:16:41.775Z,62.09
2022-08-17T14:19:12.725Z,62.22
2022-08-17T14:21:44.781Z,62.41
2022-08-17T14:24:24.115Z,62.29
2022-08-17T14:26:53.027Z,62.39
2022-08-17T14:29:24.865Z,62.05
2022-08-17T14:31:54.190Z,61.97
2022-08-17T14:34:22.473Z,62.32
2022-08-17T14:36:49.663Z,61.92
2022-08-17T14:39:17.731Z,62.23
2022-08-17T14:41:45.333Z,61.82
2022-08-17T14:44:12.645Z,61.50
2022-08-17T14:46:41.211Z,61.09
2022-08-17T14:49:10.745Z,61.33
2022-08-17T14:51:43.727Z,61.49
2022-08-17T14:54:33.566Z,61.40
2022-08-17T14:57:22.782Z,61.76
2022-08-17T14:59:54.741Z,61.56
2022-08-17T15:02:30.059Z,60.74
2022-08-17T15:05:05.441Z,61.34
2022-08-17T15:07:32.484Z,61.35
2022-08-17T15:10:01.380Z,61.38
2022-08-17T15:12:32.850Z,61.41
2022-08-17T15:15:01.123Z,61.54
2022-08-17T15:17:45.186Z,61.62
2022-08-17T15:20:20.325Z,61.73
2022-08-17T15:22:55.306Z,61.76
2022-08-17T15:25:23.885Z,61.89
2022-08-17T15:27:50.980Z,62.13
2022-08-17T15:30:18.294Z,62.20
2022-08-17T15:32:51.416Z,61.98
2022-08-17T15:35:27.084Z,62.08
2022-08-17T15:38:07.845Z,61.88
2022-08-17T15:40:40.178Z,61.87
2022-08-17T15:43:13.391Z,62.02
2022-08-17T15:45:40.779Z,62.28
2022-08-17T15:48:08.960Z,62.18
2022-08-17T15:50:36.327Z,62.15
2022-08-17T15:53:04.957Z,61.99
2022-08-17T15:55:33.428Z,62.06
2022-08-17T15:58:01.126Z,62.28
2022-08-17T16:00:29.414Z,62.28
2022-08-17T16:03:46.107Z,62.37
2022-08-17T16:05:46.911Z,62.57
2022-08-17T16:08:20.176Z,62.58
2022-08-17T16:10:49.753Z,62.60
2022-08-17T16:13:18.376Z,62.71
2022-08-17T16:15:54.823Z,62.68
2022-08-17T16:18:27.438Z,62.74
2022-08-17T16:20:55.057Z,62.28
2022-08-17T16:23:22.065Z,62.43
2022-08-17T16:25:53.327Z,62.70
2022-08-17T16:28:21.877Z,62.60
2022-08-17T16:30:49.031Z,62.73
2022-08-17T16:33:17.009Z,62.94
2022-08-17T16:35:44.036Z,62.81
2022-08-17T16:38:12.512Z,62.83
2022-08-17T16:40:40.522Z,63.00
2022-08-17T16:43:12.064Z,63.23
2022-08-17T16:45:40.733Z,63.29
2022-08-17T16:48:09.104Z,63.10
2022-08-17T16:50:36.823Z,62.60
2022-08-17T16:53:10.664Z,62.91
2022-08-17T16:55:38.299Z,62.50
2022-08-17T16:58:06.421Z,61.96
2022-08-17T17:00:34.453Z,62.73
2022-08-17T17:03:20.228Z,62.66
2022-08-17T17:06:15.015Z,62.53
2022-08-17T17:08:56.032Z,62.68
2022-08-17T17:11:57.490Z,63.08
2022-08-17T17:14:28.685Z,63.05
2022-08-17T17:17:20.181Z,63.08
2022-08-17T17:20:02.834Z,63.29
2022-08-17T17:22:41.323Z,63.53
2022-08-17T17:25:11.606Z,63.73
2022-08-17T17:27:56.843Z,63.47
2022-08-17T17:30:25.167Z,63.57
2022-08-17T17:32:58.948Z,63.72
2022-08-17T17:35:31.715Z,63.65
2022-08-17T17:38:15.112Z,63.85
2022-08-17T17:40:45.769Z,63.70
2022-08-17T17:43:37.837Z,63.94
2022-08-17T17:46:38.634Z,64.18
2022-08-17T17:49:10.699Z,64.14
2022-08-17T17:52:09.454Z,64.14
2022-08-17T17:54:43.714Z,63.99
2022-08-17T17:57:21.383Z,64.01
2022-08-17T18:00:20.774Z,63.91
2022-08-17T18:03:09.457Z,64.03
2022-08-17T18:05:51.241Z,64.27
2022-08-17T18:08:42.221Z,63.34
2022-08-17T18:11:25.503Z,64.18
2022-08-17T18:14:14.434Z,64.24
2022-08-17T18:16:42.991Z,64.30
2022-08-17T18:19:21.538Z,64.36
2022-08-17T18:22:13.096Z,64.25
2022-08-17T18:24:44.223Z,64.37
2022-08-17T18:27:24.651Z,64.64
2022-08-17T18:29:55.092Z,64.90
2022-08-17T18:32:28.166Z,64.72
2022-08-17T18:35:02.615Z,64.75
2022-08-17T18:37:32.265Z,64.88
2022-08-17T18:39:59.433Z,65.02
2022-08-17T18:42:29.361Z,65.59
2022-08-17T18:44:56.476Z,66.67
2022-08-17T18:47:26.813Z,66.01
2022-08-17T18:49:58.464Z,65.69
2022-08-17T18:52:30.315Z,65.59
2022-08-17T18:55:10.992Z,66.57
2022-08-17T18:57:45.170Z,67.22
2022-08-17T19:00:34.531Z,66.30
2022-08-17T19:03:05.696Z,66.38
2022-08-17T19:05:43.214Z,66.46
2022-08-17T19:08:23.174Z,66.46
2022-08-17T19:10:58.640Z,66.39
2022-08-17T19:13:38.969Z,66.48
2022-08-17T19:16:31.763Z,66.49
2022-08-17T19:19:07.932Z,66.53
2022-08-17T19:21:47.686Z,66.76
2022-08-17T19:24:21.537Z,66.64
2022-08-17T19:26:56.843Z,66.63
2022-08-17T19:29:36.510Z,66.55
2022-08-17T19:32:05.332Z,66.67
2022-08-17T19:34:36.532Z,66.68
2022-08-17T19:37:24.017Z,66.75
2022-08-17T19:40:24.479Z,66.78
2022-08-17T19:43:28.035Z,66.78
2022-08-17T19:46:09.793Z,66.80
2022-08-17T19:48:54.470Z,66.72
2022-08-17T19:51:34.107Z,66.82
2022-08-17T19:54:16.504Z,66.85
2022-08-17T19:56:50.610Z,66.83
2022-08-17T19:59:49.493Z,66.94
2022-08-17T20:02:25.015Z,66.98
2022-08-17T20:04:54.988Z,67.07
2022-08-17T20:07:37.376Z,67.16
2022-08-17T20:10:08.339Z,67.14
2022-08-17T20:12:38.086Z,67.29
2022-08-17T20:15:25.990Z,67.14
2022-08-17T20:17:53.726Z,67.07
2022-08-17T20:20:35.893Z,68.10
2022-08-17T20:23:22.422Z,67.37
2022-08-17T20:25:55.230Z,67.50
2022-08-17T20:28:30.691Z,67.43
2022-08-17T20:30:58.950Z,67.46
2022-08-17T20:33:34.087Z,67.54
2022-08-17T20:36:16.024Z,67.30
2022-08-17T20:38:47.310Z,67.29
2022-08-17T20:41:15.702Z,67.40
2022-08-17T20:43:51.058Z,67.54
2022-08-17T20:46:35.913Z,67.37
2022-08-17T20:49:08.770Z,67.40
2022-08-17T20:52:01.264Z,67.51
2022-08-17T20:54:51.011Z,67.30
2022-08-17T20:57:33.291Z,67.45
2022-08-17T21:00:17.107Z,67.59
2022-08-17T21:02:50.435Z,67.71
2022-08-17T21:05:58.819Z,67.49
2022-08-17T21:08:32.264Z,67.76
2022-08-17T21:11:00.918Z,67.81
2022-08-17T21:13:46.108Z,67.84
2022-08-17T21:16:38.918Z,67.84
2022-08-17T21:19:17.103Z,67.78
2022-08-17T21:21:58.367Z,67.99
2022-08-17T21:24:37.600Z,67.91
2022-08-17T21:27:24.823Z,67.94
2022-08-17T21:30:09.490Z,67.87
2022-08-17T21:32:40.450Z,68.01
2022-08-17T21:35:23.514Z,68.00
2022-08-17T21:37:54.133Z,68.02
2022-08-17T21:40:29.695Z,67.97
2022-08-17T21:42:59.081Z,67.99
2022-08-17T21:45:36.500Z,67.88
2022-08-17T21:48:06.840Z,67.77
2022-08-17T21:50:34.378Z,67.84
2022-08-17T21:53:03.197Z,67.89
2022-08-17T21:55:32.657Z,67.71
2022-08-17T21:58:13.848Z,67.81
2022-08-17T22:00:44.732Z,67.78
2022-08-17T22:03:24.128Z,67.62
2022-08-17T22:05:51.576Z,67.78
2022-08-17T22:08:24.656Z,67.53
2022-08-17T22:11:00.933Z,67.66
2022-08-17T22:13:29.733Z,67.82
2022-08-17T22:16:15.574Z,67.99
2022-08-17T22:18:53.692Z,68.00
2022-08-17T22:21:22.562Z,67.86
2022-08-17T22:24:15.490Z,67.81
2022-08-17T22:27:03.813Z,68.01
2022-08-17T22:29:44.533Z,68.02
2022-08-17T22:32:29.460Z,67.94
2022-08-17T22:35:38.788Z,67.94
2022-08-17T22:38:21.113Z,68.10
2022-08-17T22:41:17.035Z,68.33
2022-08-17T22:43:44.770Z,68.32
2022-08-17T22:46:12.617Z,68.39
2022-08-17T22:48:48.768Z,68.30
2022-08-17T22:51:23.318Z,68.29
2022-08-17T22:54:13.378Z,68.20
2022-08-17T22:57:10.320Z,68.15
2022-08-17T23:00:00.590Z,68.28
2022-08-17T23:02:33.563Z,68.30
2022-08-17T23:05:16.800Z,68.29
2022-08-17T23:07:45.934Z,68.20
2022-08-17T23:10:13.770Z,68.27
2022-08-17T23:12:40.859Z,68.33
2022-08-17T23:15:15.794Z,68.33
2022-08-17T23:17:43.245Z,68.03
2022-08-17T23:20:15.105Z,68.10
2022-08-17T23:22:51.241Z,68.16
2022-08-17T23:25:26.489Z,68.07
2022-08-17T23:27:53.761Z,67.94
2022-08-17T23:30:20.872Z,68.19
2022-08-17T23:32:53.824Z,68.11
2022-08-17T23:35:39.102Z,68.08
2022-08-17T23:38:09.270Z,67.90
2022-08-17T23:40:37.817Z,68.20
2022-08-17T23:43:23.551Z,68.24
2022-08-17T23:45:57.679Z,68.33
2022-08-17T23:48:35.173Z,68.36
2022-08-17T23:51:06.016Z,68.36
2022-08-17T23:53:36.309Z,68.36
2022-08-17T23:56:09.636Z,68.23
2022-08-17T23:58:45.030Z,68.33
